sensor_id;sensor_type;location;lat;lon;timestamp;pressure;altitude;pressure_sealevel;temperature;humidity
6514;BME280;3290;47.716;9.070;2023-06-22T00:02:22;96810.28;;;22.58;100.00
6514;BME280;3290;47.716;9.070;2023-06-22T00:04:47;96807.31;;;22.59;100.00
6514;BME280;3290;47.716;9.070;2023-06-22T00:07:13;96804.81;;;22.50;100.00
6514;BME280;3290;47.716;9.070;2023-06-22T00:09:38;96808.66;;;22.25;100.00
6514;BME280;3290;47.716;9.070;2023-06-22T00:12:04;96804.72;;;22.36;100.00
6514;BME280;3290;47.716;9.070;2023-06-22T00:14:29;96802.00;;;22.41;100.00
6514;BME280;3290;47.716;9.070;2023-06-22T00:16:54;96798.19;;;22.47;100.00
6514;BME280;3290;47.716;9.070;2023-06-22T00:19:22;96798.75;;;22.44;100.00
6514;BME280;3290;47.716;9.070;2023-06-22T00:21:48;96797.75;;;22.40;100.00
6514;BME280;3290;47.716;9.070;2023-06-22T00:24:21;96798.97;;;22.48;100.00
6514;BME280;3290;47.716;9.070;2023-06-22T00:26:48;96800.16;;;22.55;100.00
6514;BME280;3290;47.716;9.070;2023-06-22T00:29:14;96793.06;;;22.64;100.00
6514;BME280;3290;47.716;9.070;2023-06-22T00:31:39;96791.00;;;22.61;100.00
6514;BME280;3290;47.716;9.070;2023-06-22T00:34:04;96784.44;;;22.53;100.00
6514;BME280;3290;47.716;9.070;2023-06-22T00:36:34;96784.91;;;22.42;100.00
6514;BME280;3290;47.716;9.070;2023-06-22T00:38:59;96782.81;;;22.39;100.00
6514;BME280;3290;47.716;9.070;2023-06-22T00:41:25;96788.00;;;22.31;100.00
6514;BME280;3290;47.716;9.070;2023-06-22T00:43:53;96794.31;;;22.21;100.00
6514;BME280;3290;47.716;9.070;2023-06-22T00:46:19;96804.19;;;22.21;100.00
6514;BME280;3290;47.716;9.070;2023-06-22T00:48:44;96795.22;;;22.30;100.00
6514;BME280;3290;47.716;9.070;2023-06-22T00:51:10;96797.41;;;22.28;100.00
6514;BME280;3290;47.716;9.070;2023-06-22T00:53:36;96806.09;;;22.52;100.00
6514;BME280;3290;47.716;9.070;2023-06-22T00:56:02;96792.78;;;22.15;100.00
6514;BME280;3290;47.716;9.070;2023-06-22T00:58:29;96801.91;;;22.09;100.00
6514;BME280;3290;47.716;9.070;2023-06-22T01:00:55;96789.97;;;22.25;100.00
6514;BME280;3290;47.716;9.070;2023-06-22T01:03:20;96801.91;;;22.09;100.00
6514;BME280;3290;47.716;9.070;2023-06-22T01:05:46;96799.03;;;21.88;100.00
6514;BME280;3290;47.716;9.070;2023-06-22T01:13:56;96812.00;;;21.76;100.00
6514;BME280;3290;47.716;9.070;2023-06-22T01:16:31;96807.81;;;21.70;100.00
6514;BME280;3290;47.716;9.070;2023-06-22T01:19:01;96812.72;;;21.63;100.00
6514;BME280;3290;47.716;9.070;2023-06-22T01:21:30;96805.94;;;21.89;100.00
6514;BME280;3290;47.716;9.070;2023-06-22T01:24:18;96815.94;;;21.60;100.00
6514;BME280;3290;47.716;9.070;2023-06-22T01:29:24;96818.59;;;21.60;100.00
6514;BME280;3290;47.716;9.070;2023-06-22T01:31:53;96824.03;;;21.73;100.00
6514;BME280;3290;47.716;9.070;2023-06-22T01:34:19;96833.59;;;21.56;100.00
6514;BME280;3290;47.716;9.070;2023-06-22T01:36:46;96828.44;;;21.36;100.00
6514;BME280;3290;47.716;9.070;2023-06-22T01:39:12;96821.88;;;21.52;100.00
6514;BME280;3290;47.716;9.070;2023-06-22T01:41:39;96821.59;;;21.30;100.00
6514;BME280;3290;47.716;9.070;2023-06-22T01:44:08;96834.91;;;21.30;100.00
6514;BME280;3290;47.716;9.070;2023-06-22T01:46:35;96828.72;;;21.12;100.00
6514;BME280;3290;47.716;9.070;2023-06-22T01:49:02;96836.63;;;21.22;100.00
6514;BME280;3290;47.716;9.070;2023-06-22T01:51:29;96837.22;;;21.14;100.00
6514;BME280;3290;47.716;9.070;2023-06-22T01:53:54;96834.31;;;21.10;100.00
6514;BME280;3290;47.716;9.070;2023-06-22T01:56:20;96849.75;;;21.13;100.00
6514;BME280;3290;47.716;9.070;2023-06-22T01:58:54;96846.34;;;21.08;100.00
6514;BME280;3290;47.716;9.070;2023-06-22T02:01:29;96846.41;;;21.03;100.00
6514;BME280;3290;47.716;9.070;2023-06-22T02:04:13;96850.22;;;20.92;100.00
6514;BME280;3290;47.716;9.070;2023-06-22T02:06:42;96857.31;;;21.01;100.00
6514;BME280;3290;47.716;9.070;2023-06-22T02:09:16;96849.53;;;21.10;100.00
6514;BME280;3290;47.716;9.070;2023-06-22T02:11:44;96852.19;;;21.10;100.00
6514;BME280;3290;47.716;9.070;2023-06-22T02:14:11;96846.81;;;21.15;100.00
6514;BME280;3290;47.716;9.070;2023-06-22T02:16:37;96847.50;;;21.02;100.00
6514;BME280;3290;47.716;9.070;2023-06-22T02:19:03;96841.69;;;20.95;100.00
6514;BME280;3290;47.716;9.070;2023-06-22T02:21:29;96838.41;;;21.03;100.00
6514;BME280;3290;47.716;9.070;2023-06-22T02:23:55;96852.69;;;21.12;100.00
6514;BME280;3290;47.716;9.070;2023-06-22T02:26:21;96850.00;;;20.88;100.00
6514;BME280;3290;47.716;9.070;2023-06-22T02:28:46;96853.22;;;20.86;100.00
6514;BME280;3290;47.716;9.070;2023-06-22T02:31:12;96860.31;;;21.00;100.00
6514;BME280;3290;47.716;9.070;2023-06-22T02:33:37;96862.84;;;21.10;100.00
6514;BME280;3290;47.716;9.070;2023-06-22T02:36:03;96865.31;;;21.29;100.00
6514;BME280;3290;47.716;9.070;2023-06-22T02:38:31;96862.03;;;21.37;100.00
6514;BME280;3290;47.716;9.070;2023-06-22T02:41:00;96856.81;;;21.27;100.00
6514;BME280;3290;47.716;9.070;2023-06-22T02:43:25;96861.56;;;21.30;100.00
6514;BME280;3290;47.716;9.070;2023-06-22T02:45:51;96870.22;;;21.23;100.00
6514;BME280;3290;47.716;9.070;2023-06-22T02:48:16;96867.81;;;20.93;100.00
6514;BME280;3290;47.716;9.070;2023-06-22T02:50:41;96862.81;;;21.15;100.00
6514;BME280;3290;47.716;9.070;2023-06-22T02:53:07;96866.84;;;21.12;100.00
6514;BME280;3290;47.716;9.070;2023-06-22T02:55:32;96856.47;;;21.11;100.00
6514;BME280;3290;47.716;9.070;2023-06-22T02:57:57;96865.03;;;21.03;100.00
6514;BME280;3290;47.716;9.070;2023-06-22T03:00:24;96861.06;;;20.72;100.00
6514;BME280;3290;47.716;9.070;2023-06-22T03:02:55;96855.03;;;20.57;100.00
6514;BME280;3290;47.716;9.070;2023-06-22T03:05:21;96850.25;;;20.54;100.00
6514;BME280;3290;47.716;9.070;2023-06-22T03:07:46;96858.28;;;20.49;100.00
6514;BME280;3290;47.716;9.070;2023-06-22T03:10:13;96857.00;;;20.42;100.00
6514;BME280;3290;47.716;9.070;2023-06-22T03:12:39;96851.91;;;20.45;100.00
6514;BME280;3290;47.716;9.070;2023-06-22T03:15:06;96844.94;;;20.54;100.00
6514;BME280;3290;47.716;9.070;2023-06-22T03:17:36;96850.88;;;20.46;100.00
6514;BME280;3290;47.716;9.070;2023-06-22T03:20:03;96843.81;;;20.65;100.00
6514;BME280;3290;47.716;9.070;2023-06-22T03:22:36;96848.78;;;20.76;100.00
6514;BME280;3290;47.716;9.070;2023-06-22T03:25:02;96853.56;;;20.79;100.00
6514;BME280;3290;47.716;9.070;2023-06-22T03:27:28;96855.13;;;20.80;100.00
6514;BME280;3290;47.716;9.070;2023-06-22T03:29:53;96859.91;;;20.83;100.00
6514;BME280;3290;47.716;9.070;2023-06-22T03:32:18;96857.81;;;20.75;100.00
6514;BME280;3290;47.716;9.070;2023-06-22T03:34:44;96851.94;;;20.78;100.00
6514;BME280;3290;47.716;9.070;2023-06-22T03:37:13;96851.13;;;20.83;100.00
6514;BME280;3290;47.716;9.070;2023-06-22T03:39:38;96847.28;;;20.65;100.00
6514;BME280;3290;47.716;9.070;2023-06-22T03:42:04;96849.94;;;20.65;100.00
6514;BME280;3290;47.716;9.070;2023-06-22T03:44:29;96856.91;;;20.56;100.00
6514;BME280;3290;47.716;9.070;2023-06-22T03:46:55;96857.81;;;20.75;100.00
6514;BME280;3290;47.716;9.070;2023-06-22T03:49:20;96853.41;;;20.61;100.00
6514;BME280;3290;47.716;9.070;2023-06-22T03:51:45;96850.25;;;20.54;100.00
6514;BME280;3290;47.716;9.070;2023-06-22T03:54:11;96849.91;;;20.70;100.00
6514;BME280;3290;47.716;9.070;2023-06-22T03:56:36;96851.28;;;20.91;100.00
6514;BME280;3290;47.716;9.070;2023-06-22T03:59:03;96841.13;;;20.65;100.00
6514;BME280;3290;47.716;9.070;2023-06-22T04:01:28;96848.00;;;20.76;100.00
6514;BME280;3290;47.716;9.070;2023-06-22T04:03:54;96840.81;;;20.71;100.00
6514;BME280;3290;47.716;9.070;2023-06-22T04:06:19;96844.41;;;20.90;100.00
6514;BME280;3290;47.716;9.070;2023-06-22T04:08:45;96835.47;;;20.76;100.00
6514;BME280;3290;47.716;9.070;2023-06-22T04:11:15;96861.56;;;21.07;100.00
6514;BME280;3290;47.716;9.070;2023-06-22T04:13:41;96861.34;;;20.99;100.00
6514;BME280;3290;47.716;9.070;2023-06-22T04:16:06;96832.84;;;20.99;100.00
6514;BME280;3290;47.716;9.070;2023-06-22T04:18:32;96845.13;;;21.24;100.00
6514;BME280;3290;47.716;9.070;2023-06-22T04:20:57;96850.13;;;21.30;100.00
6514;BME280;3290;47.716;9.070;2023-06-22T04:23:22;96822.22;;;21.23;100.00
6514;BME280;3290;47.716;9.070;2023-06-22T04:25:48;96815.63;;;21.15;100.00
6514;BME280;3290;47.716;9.070;2023-06-22T04:28:13;96852.50;;;21.31;100.00
6514;BME280;3290;47.716;9.070;2023-06-22T04:30:38;96828.31;;;21.00;100.00
6514;BME280;3290;47.716;9.070;2023-06-22T04:33:14;96799.19;;;21.31;100.00
6514;BME280;3290;47.716;9.070;2023-06-22T04:35:40;96828.75;;;21.07;100.00
6514;BME280;3290;47.716;9.070;2023-06-22T04:38:07;96860.56;;;21.27;100.00
6514;BME280;3290;47.716;9.070;2023-06-22T04:40:32;96814.75;;;21.25;100.00
6514;BME280;3290;47.716;9.070;2023-06-22T04:42:57;96786.03;;;21.63;100.00
6514;BME280;3290;47.716;9.070;2023-06-22T04:45:23;96835.00;;;21.72;100.00
6514;BME280;3290;47.716;9.070;2023-06-22T04:47:48;96861.78;;;21.62;100.00
6514;BME280;3290;47.716;9.070;2023-06-22T04:50:14;96815.66;;;21.38;100.00
6514;BME280;3290;47.716;9.070;2023-06-22T04:52:39;96781.44;;;21.87;100.00
6514;BME280;3290;47.716;9.070;2023-06-22T04:55:05;96837.75;;;21.85;100.00
6514;BME280;3290;47.716;9.070;2023-06-22T04:57:31;96874.19;;;21.95;100.00
6514;BME280;3290;47.716;9.070;2023-06-22T05:00:00;96826.84;;;21.82;100.00
6514;BME280;3290;47.716;9.070;2023-06-22T05:02:37;96778.50;;;22.25;100.00
6514;BME280;3290;47.716;9.070;2023-06-22T05:05:04;96832.53;;;22.35;100.00
6514;BME280;3290;47.716;9.070;2023-06-22T05:07:33;96851.22;;;22.35;100.00
6514;BME280;3290;47.716;9.070;2023-06-22T05:09:59;96809.94;;;22.46;100.00
6514;BME280;3290;47.716;9.070;2023-06-22T05:12:24;96796.28;;;22.79;100.00
6514;BME280;3290;47.716;9.070;2023-06-22T05:14:49;96832.66;;;22.93;100.00
6514;BME280;3290;47.716;9.070;2023-06-22T05:17:15;96852.47;;;22.92;100.00
6514;BME280;3290;47.716;9.070;2023-06-22T05:19:44;96824.47;;;22.72;100.00
6514;BME280;3290;47.716;9.070;2023-06-22T05:22:14;96803.41;;;22.52;100.00
6514;BME280;3290;47.716;9.070;2023-06-22T05:24:39;96827.28;;;23.12;100.00
6514;BME280;3290;47.716;9.070;2023-06-22T05:27:05;96837.47;;;23.23;100.00
6514;BME280;3290;47.716;9.070;2023-06-22T05:29:31;96811.44;;;23.29;100.00
6514;BME280;3290;47.716;9.070;2023-06-22T05:31:56;96784.09;;;23.32;100.00
6514;BME280;3290;47.716;9.070;2023-06-22T05:34:21;96797.19;;;23.60;100.00
6514;BME280;3290;47.716;9.070;2023-06-22T05:36:47;96824.03;;;23.81;100.00
6514;BME280;3290;47.716;9.070;2023-06-22T05:39:13;96815.22;;;23.68;100.00
6514;BME280;3290;47.716;9.070;2023-06-22T05:41:39;96799.94;;;23.81;100.00
6514;BME280;3290;47.716;9.070;2023-06-22T05:44:04;96807.75;;;23.91;99.68
6514;BME280;3290;47.716;9.070;2023-06-22T05:46:30;96814.94;;;24.17;98.07
6514;BME280;3290;47.716;9.070;2023-06-22T05:48:55;96812.75;;;24.33;96.53
6514;BME280;3290;47.716;9.070;2023-06-22T05:51:20;96803.81;;;24.24;96.71
6514;BME280;3290;47.716;9.070;2023-06-22T05:53:46;96795.50;;;24.25;97.25
6514;BME280;3290;47.716;9.070;2023-06-22T05:56:15;96813.06;;;24.18;96.22
6514;BME280;3290;47.716;9.070;2023-06-22T05:58:40;96819.34;;;24.70;94.06
6514;BME280;3290;47.716;9.070;2023-06-22T06:01:05;96811.91;;;24.46;93.88
6514;BME280;3290;47.716;9.070;2023-06-22T06:03:31;96800.69;;;24.65;93.74
6514;BME280;3290;47.716;9.070;2023-06-22T06:05:56;96811.84;;;24.59;94.69
6514;BME280;3290;47.716;9.070;2023-06-22T06:08:21;96812.34;;;24.61;93.70
6514;BME280;3290;47.716;9.070;2023-06-22T06:10:47;96818.31;;;25.01;91.75
6514;BME280;3290;47.716;9.070;2023-06-22T06:13:12;96809.34;;;24.84;91.92
6514;BME280;3290;47.716;9.070;2023-06-22T06:15:38;96800.78;;;25.04;91.06
6514;BME280;3290;47.716;9.070;2023-06-22T06:18:03;96813.13;;;25.05;90.97
6514;BME280;3290;47.716;9.070;2023-06-22T06:20:30;96808.28;;;25.15;89.06
6514;BME280;3290;47.716;9.070;2023-06-22T06:22:56;96806.88;;;25.18;89.36
6514;BME280;3290;47.716;9.070;2023-06-22T06:25:22;96810.47;;;24.92;90.95
6514;BME280;3290;47.716;9.070;2023-06-22T06:27:49;96806.44;;;25.24;89.04
6514;BME280;3290;47.716;9.070;2023-06-22T06:30:15;96803.88;;;25.58;88.06
6514;BME280;3290;47.716;9.070;2023-06-22T06:32:42;96814.22;;;25.42;89.75
6514;BME280;3290;47.716;9.070;2023-06-22T06:35:09;96811.06;;;25.40;90.13
6514;BME280;3290;47.716;9.070;2023-06-22T06:37:37;96811.84;;;25.33;91.94
6514;BME280;3290;47.716;9.070;2023-06-22T06:40:08;96809.75;;;25.60;90.16
6514;BME280;3290;47.716;9.070;2023-06-22T06:42:39;96809.19;;;25.02;91.04
6514;BME280;3290;47.716;9.070;2023-06-22T06:45:07;96813.88;;;25.35;91.69
6514;BME280;3290;47.716;9.070;2023-06-22T06:47:33;96817.59;;;25.56;89.80
6514;BME280;3290;47.716;9.070;2023-06-22T06:50:00;96819.59;;;25.34;90.93
6514;BME280;3290;47.716;9.070;2023-06-22T06:52:25;96815.75;;;25.27;91.64
6514;BME280;3290;47.716;9.070;2023-06-22T06:54:51;96820.06;;;25.06;91.44
6514;BME280;3290;47.716;9.070;2023-06-22T06:57:18;96828.19;;;25.23;90.97
6514;BME280;3290;47.716;9.070;2023-06-22T06:59:43;96824.16;;;25.72;88.23
6514;BME280;3290;47.716;9.070;2023-06-22T07:02:08;96820.41;;;25.90;88.83
6514;BME280;3290;47.716;9.070;2023-06-22T07:04:34;96818.38;;;25.95;88.16
6514;BME280;3290;47.716;9.070;2023-06-22T07:07:01;96827.19;;;25.79;87.23
6514;BME280;3290;47.716;9.070;2023-06-22T07:09:27;96841.41;;;25.49;87.86
6514;BME280;3290;47.716;9.070;2023-06-22T07:11:52;96824.75;;;25.61;89.88
6514;BME280;3290;47.716;9.070;2023-06-22T07:14:18;96825.31;;;25.88;86.98
6514;BME280;3290;47.716;9.070;2023-06-22T07:16:43;96825.78;;;25.51;87.58
6514;BME280;3290;47.716;9.070;2023-06-22T07:19:11;96820.25;;;25.78;87.26
6514;BME280;3290;47.716;9.070;2023-06-22T07:21:36;96826.75;;;25.94;85.91
6514;BME280;3290;47.716;9.070;2023-06-22T07:24:02;96820.44;;;26.07;85.34
6514;BME280;3290;47.716;9.070;2023-06-22T07:26:27;96805.72;;;25.87;85.59
6514;BME280;3290;47.716;9.070;2023-06-22T07:28:53;96801.50;;;26.20;84.35
6514;BME280;3290;47.716;9.070;2023-06-22T07:31:18;96807.56;;;26.25;84.10
6514;BME280;3290;47.716;9.070;2023-06-22T07:33:43;96799.78;;;26.49;82.44
6514;BME280;3290;47.716;9.070;2023-06-22T07:36:09;96794.72;;;26.90;79.94
6514;BME280;3290;47.716;9.070;2023-06-22T07:38:34;96789.03;;;26.49;82.16
6514;BME280;3290;47.716;9.070;2023-06-22T07:41:02;96789.66;;;26.63;80.62
6514;BME280;3290;47.716;9.070;2023-06-22T07:43:30;96793.59;;;26.91;79.91
6514;BME280;3290;47.716;9.070;2023-06-22T07:45:58;96793.31;;;26.33;82.29
6514;BME280;3290;47.716;9.070;2023-06-22T07:48:23;96798.00;;;27.03;78.24
6514;BME280;3290;47.716;9.070;2023-06-22T07:50:49;96808.59;;;27.08;77.84
6514;BME280;3290;47.716;9.070;2023-06-22T07:53:15;96804.03;;;27.00;78.68
6514;BME280;3290;47.716;9.070;2023-06-22T07:55:40;96820.00;;;27.05;79.67
6514;BME280;3290;47.716;9.070;2023-06-22T07:58:05;96834.13;;;27.39;78.41
6514;BME280;3290;47.716;9.070;2023-06-22T08:00:31;96857.34;;;26.65;82.79
6514;BME280;3290;47.716;9.070;2023-06-22T08:02:58;96898.94;;;25.87;85.59
6514;BME280;3290;47.716;9.070;2023-06-22T08:05:24;96941.09;;;25.13;91.38
6514;BME280;3290;47.716;9.070;2023-06-22T08:07:49;96938.88;;;25.06;92.77
6514;BME280;3290;47.716;9.070;2023-06-22T08:10:15;96922.75;;;25.58;90.98
6514;BME280;3290;47.716;9.070;2023-06-22T08:12:41;96902.22;;;25.84;87.64
6514;BME280;3290;47.716;9.070;2023-06-22T08:15:07;96899.72;;;26.34;85.16
6514;BME280;3290;47.716;9.070;2023-06-22T08:17:33;96903.97;;;26.27;86.56
6514;BME280;3290;47.716;9.070;2023-06-22T08:19:58;96919.50;;;26.00;86.15
6514;BME280;3290;47.716;9.070;2023-06-22T08:22:24;96911.00;;;26.06;87.35
6514;BME280;3290;47.716;9.070;2023-06-22T08:24:49;96911.41;;;26.30;85.67
6514;BME280;3290;47.716;9.070;2023-06-22T08:27:15;96927.66;;;25.78;87.48
6514;BME280;3290;47.716;9.070;2023-06-22T08:29:42;96931.09;;;26.17;86.29
6514;BME280;3290;47.716;9.070;2023-06-22T08:32:11;96930.03;;;26.26;85.89
6514;BME280;3290;47.716;9.070;2023-06-22T08:34:36;96913.88;;;26.90;83.80
6514;BME280;3290;47.716;9.070;2023-06-22T08:37:02;96908.28;;;27.20;83.52
6514;BME280;3290;47.716;9.070;2023-06-22T08:39:32;96910.31;;;27.32;80.94
6514;BME280;3290;47.716;9.070;2023-06-22T08:41:57;96919.34;;;27.44;79.60
6514;BME280;3290;47.716;9.070;2023-06-22T08:44:22;96928.34;;;28.10;76.67
6514;BME280;3290;47.716;9.070;2023-06-22T08:46:48;96935.13;;;28.45;74.95
6514;BME280;3290;47.716;9.070;2023-06-22T08:49:13;96918.66;;;29.07;70.88
6514;BME280;3290;47.716;9.070;2023-06-22T08:51:38;96909.13;;;29.30;68.62
6514;BME280;3290;47.716;9.070;2023-06-22T08:54:04;96919.22;;;28.52;71.23
6514;BME280;3290;47.716;9.070;2023-06-22T08:56:30;96910.41;;;28.14;73.10
6514;BME280;3290;47.716;9.070;2023-06-22T08:58:55;96914.28;;;27.51;76.47
6514;BME280;3290;47.716;9.070;2023-06-22T09:01:21;96904.44;;;27.55;75.42
6514;BME280;3290;47.716;9.070;2023-06-22T09:03:47;96897.13;;;28.09;73.34
6514;BME280;3290;47.716;9.070;2023-06-22T09:06:19;96894.50;;;28.90;70.94
6514;BME280;3290;47.716;9.070;2023-06-22T09:08:45;96885.06;;;29.92;66.36
6514;BME280;3290;47.716;9.070;2023-06-22T09:11:11;96880.16;;;29.50;66.44
6514;BME280;3290;47.716;9.070;2023-06-22T09:13:36;96863.50;;;28.96;65.92
6514;BME280;3290;47.716;9.070;2023-06-22T09:16:02;96855.53;;;29.20;65.48
6514;BME280;3290;47.716;9.070;2023-06-22T09:18:27;96853.22;;;29.42;66.55
6514;BME280;3290;47.716;9.070;2023-06-22T09:20:53;96862.50;;;28.40;69.84
6514;BME280;3290;47.716;9.070;2023-06-22T09:23:18;96864.25;;;28.16;70.48
6514;BME280;3290;47.716;9.070;2023-06-22T09:25:43;96860.78;;;28.15;72.36
6514;BME280;3290;47.716;9.070;2023-06-22T09:28:09;96855.78;;;28.05;72.04
6514;BME280;3290;47.716;9.070;2023-06-22T09:30:34;96851.72;;;28.80;69.04
6514;BME280;3290;47.716;9.070;2023-06-22T09:32:59;96843.03;;;29.83;65.32
6514;BME280;3290;47.716;9.070;2023-06-22T09:35:26;96834.72;;;29.88;65.28
6514;BME280;3290;47.716;9.070;2023-06-22T09:37:51;96828.59;;;30.26;64.12
6514;BME280;3290;47.716;9.070;2023-06-22T09:40:17;96829.06;;;29.81;63.43
6514;BME280;3290;47.716;9.070;2023-06-22T09:42:42;96818.94;;;30.02;64.31
6514;BME280;3290;47.716;9.070;2023-06-22T09:45:08;96814.69;;;29.89;63.97
6514;BME280;3290;47.716;9.070;2023-06-22T09:47:34;96816.44;;;29.73;63.32
6514;BME280;3290;47.716;9.070;2023-06-22T09:49:59;96809.00;;;29.94;62.16
6514;BME280;3290;47.716;9.070;2023-06-22T09:52:25;96820.72;;;30.33;61.25
6514;BME280;3290;47.716;9.070;2023-06-22T09:54:50;96821.25;;;30.78;60.58
6514;BME280;3290;47.716;9.070;2023-06-22T09:57:15;96806.41;;;30.21;59.54
6514;BME280;3290;47.716;9.070;2023-06-22T09:59:41;96798.72;;;30.47;58.65
6514;BME280;3290;47.716;9.070;2023-06-22T10:02:07;96800.00;;;31.19;56.48
6514;BME280;3290;47.716;9.070;2023-06-22T10:04:33;96803.38;;;29.87;58.44
6514;BME280;3290;47.716;9.070;2023-06-22T10:06:59;96792.72;;;30.80;57.25
6514;BME280;3290;47.716;9.070;2023-06-22T10:09:24;96809.44;;;30.43;58.35
6514;BME280;3290;47.716;9.070;2023-06-22T10:11:50;96806.06;;;31.43;54.75
6514;BME280;3290;47.716;9.070;2023-06-22T10:14:15;96802.47;;;32.00;53.55
6514;BME280;3290;47.716;9.070;2023-06-22T10:16:42;96818.25;;;30.28;59.09
6514;BME280;3290;47.716;9.070;2023-06-22T10:19:07;96803.88;;;30.79;58.53
6514;BME280;3290;47.716;9.070;2023-06-22T10:21:33;96803.53;;;31.08;58.91
6514;BME280;3290;47.716;9.070;2023-06-22T10:23:59;96805.56;;;30.56;59.97
6514;BME280;3290;47.716;9.070;2023-06-22T10:26:31;96794.81;;;30.21;59.61
6514;BME280;3290;47.716;9.070;2023-06-22T10:28:56;96783.88;;;30.68;59.29
6514;BME280;3290;47.716;9.070;2023-06-22T10:31:21;96785.09;;;31.13;57.85
6514;BME280;3290;47.716;9.070;2023-06-22T10:33:48;96779.78;;;31.16;58.05
6514;BME280;3290;47.716;9.070;2023-06-22T10:36:14;96771.31;;;31.79;56.02
6514;BME280;3290;47.716;9.070;2023-06-22T10:38:40;96776.56;;;32.37;53.95
6514;BME280;3290;47.716;9.070;2023-06-22T10:41:05;96769.31;;;31.91;55.31
6514;BME280;3290;47.716;9.070;2023-06-22T10:43:30;96760.34;;;31.88;55.54
6514;BME280;3290;47.716;9.070;2023-06-22T10:45:56;96765.81;;;31.14;56.30
6514;BME280;3290;47.716;9.070;2023-06-22T10:48:21;96773.13;;;30.71;57.18
6514;BME280;3290;47.716;9.070;2023-06-22T10:50:46;96767.91;;;30.51;58.49
6514;BME280;3290;47.716;9.070;2023-06-22T10:53:12;96775.34;;;31.08;56.43
6514;BME280;3290;47.716;9.070;2023-06-22T10:55:37;96768.41;;;30.96;58.06
6514;BME280;3290;47.716;9.070;2023-06-22T10:58:03;96769.22;;;30.18;59.21
6514;BME280;3290;47.716;9.070;2023-06-22T11:00:28;96773.22;;;30.75;57.46
6514;BME280;3290;47.716;9.070;2023-06-22T11:02:53;96772.94;;;30.92;55.78
6514;BME280;3290;47.716;9.070;2023-06-22T11:05:19;96772.75;;;30.85;57.15
6514;BME280;3290;47.716;9.070;2023-06-22T11:07:44;96773.91;;;30.84;55.38
6514;BME280;3290;47.716;9.070;2023-06-22T11:10:10;96775.00;;;31.10;55.30
6514;BME280;3290;47.716;9.070;2023-06-22T11:12:36;96774.28;;;31.13;55.28
6514;BME280;3290;47.716;9.070;2023-06-22T11:15:01;96757.31;;;30.85;56.65
6514;BME280;3290;47.716;9.070;2023-06-22T11:17:27;96759.94;;;30.70;58.34
6514;BME280;3290;47.716;9.070;2023-06-22T11:19:52;96758.31;;;31.23;55.88
6514;BME280;3290;47.716;9.070;2023-06-22T11:22:17;96770.97;;;31.19;56.69
6514;BME280;3290;47.716;9.070;2023-06-22T11:24:43;96780.09;;;31.42;54.56
6514;BME280;3290;47.716;9.070;2023-06-22T11:27:08;96776.50;;;30.41;56.54
6514;BME280;3290;47.716;9.070;2023-06-22T11:29:33;96773.78;;;31.23;54.69
6514;BME280;3290;47.716;9.070;2023-06-22T11:31:59;96775.03;;;31.41;57.08
6514;BME280;3290;47.716;9.070;2023-06-22T11:34:24;96774.13;;;31.98;53.83
6514;BME280;3290;47.716;9.070;2023-06-22T11:36:50;96775.41;;;30.97;56.35
6514;BME280;3290;47.716;9.070;2023-06-22T11:39:15;96789.72;;;30.70;58.02
6514;BME280;3290;47.716;9.070;2023-06-22T11:41:41;96782.31;;;30.94;57.30
6514;BME280;3290;47.716;9.070;2023-06-22T11:44:07;96780.50;;;31.13;56.85
6514;BME280;3290;47.716;9.070;2023-06-22T11:46:32;96770.72;;;31.24;56.06
6514;BME280;3290;47.716;9.070;2023-06-22T11:48:58;96781.56;;;30.82;58.96
6514;BME280;3290;47.716;9.070;2023-06-22T11:51:23;96776.88;;;30.94;56.76
6514;BME280;3290;47.716;9.070;2023-06-22T11:53:48;96776.84;;;30.67;59.05
6514;BME280;3290;47.716;9.070;2023-06-22T11:56:14;96779.41;;;30.87;58.25
6514;BME280;3290;47.716;9.070;2023-06-22T11:58:39;96781.50;;;30.94;59.36
6514;BME280;3290;47.716;9.070;2023-06-22T12:01:04;96783.16;;;30.71;59.72
6514;BME280;3290;47.716;9.070;2023-06-22T12:03:30;96783.25;;;30.74;60.61
6514;BME280;3290;47.716;9.070;2023-06-22T12:05:55;96789.06;;;31.15;59.72
6514;BME280;3290;47.716;9.070;2023-06-22T12:08:21;96780.63;;;30.90;58.80
6514;BME280;3290;47.716;9.070;2023-06-22T12:10:47;96776.59;;;30.84;60.42
6514;BME280;3290;47.716;9.070;2023-06-22T12:13:13;96781.66;;;30.46;58.75
6514;BME280;3290;47.716;9.070;2023-06-22T12:15:38;96771.44;;;30.67;58.99
6514;BME280;3290;47.716;9.070;2023-06-22T12:18:04;96775.41;;;30.19;60.45
6514;BME280;3290;47.716;9.070;2023-06-22T12:20:29;96776.34;;;30.89;60.56
6514;BME280;3290;47.716;9.070;2023-06-22T12:22:54;96773.31;;;30.78;60.95
6514;BME280;3290;47.716;9.070;2023-06-22T12:25:22;96774.44;;;30.89;60.39
6514;BME280;3290;47.716;9.070;2023-06-22T12:27:47;96781.56;;;30.82;61.84
6514;BME280;3290;47.716;9.070;2023-06-22T12:30:13;96768.97;;;30.62;62.62
6514;BME280;3290;47.716;9.070;2023-06-22T12:32:38;96766.66;;;30.88;63.43
6514;BME280;3290;47.716;9.070;2023-06-22T12:35:03;96762.19;;;30.95;61.15
6514;BME280;3290;47.716;9.070;2023-06-22T12:37:29;96762.41;;;31.17;61.27
6514;BME280;3290;47.716;9.070;2023-06-22T12:39:56;96751.91;;;31.01;60.78
6514;BME280;3290;47.716;9.070;2023-06-22T12:42:22;96760.75;;;31.28;60.98
6514;BME280;3290;47.716;9.070;2023-06-22T12:44:47;96756.38;;;31.08;61.65
6514;BME280;3290;47.716;9.070;2023-06-22T12:47:13;96749.81;;;31.71;61.46
6514;BME280;3290;47.716;9.070;2023-06-22T12:49:38;96744.78;;;31.39;61.96
6514;BME280;3290;47.716;9.070;2023-06-22T12:52:09;96759.91;;;31.55;60.46
6514;BME280;3290;47.716;9.070;2023-06-22T12:54:35;96749.66;;;31.33;61.52
6514;BME280;3290;47.716;9.070;2023-06-22T12:57:01;96755.78;;;31.15;62.28
6514;BME280;3290;47.716;9.070;2023-06-22T12:59:26;96760.97;;;31.35;63.19
6514;BME280;3290;47.716;9.070;2023-06-22T13:01:52;96752.44;;;31.67;61.78
6514;BME280;3290;47.716;9.070;2023-06-22T13:04:17;96751.31;;;31.22;63.90
6514;BME280;3290;47.716;9.070;2023-06-22T13:06:44;96764.28;;;31.44;61.90
6514;BME280;3290;47.716;9.070;2023-06-22T13:09:19;96764.81;;;31.34;60.25
6514;BME280;3290;47.716;9.070;2023-06-22T13:11:44;96752.88;;;31.23;61.97
6514;BME280;3290;47.716;9.070;2023-06-22T13:14:10;96746.34;;;31.70;60.66
6514;BME280;3290;47.716;9.070;2023-06-22T13:16:35;96735.03;;;31.84;58.45
6514;BME280;3290;47.716;9.070;2023-06-22T13:19:00;96733.16;;;31.53;57.96
6514;BME280;3290;47.716;9.070;2023-06-22T13:21:26;96726.56;;;32.19;58.71